• Join FlightAware (Why Join?)
  • Login
  • US Flag 
Gobble Gobble! 
08:51PM EST


 

Airport Tracker/Info


-or-


 

Live Flight TrackerFlight Track Log ✈ AAL1457 ✈ 31-Jul-2014 ✈ KDFW - KAUS

Flight Track Log - Related Links

Times and Time Zones

All times are in EDT time to prevent confusion due to time zone crossing. See the AAL1457 flight status page for this flight to view local times or setup timezone preferences in your user account.

Time Position Orientation Groundspeed Altitude Reporting Facility
EDT Latitude Longitude Course Direction KTS MPH feet Rate Location/Type
10:39PM 32.9000 -97.0500 196° South 159 183 1,000  Level Dallas / Fort Worth TRACON
10:40PM 32.9500 -97.0500 360° North 187 215 2,500 1,920 Climbing Dallas / Fort Worth TRACON
10:41PM 33.0000 -97.0833 331° Northwest 257 296 4,500 2,340 Climbing Dallas / Fort Worth TRACON
10:42PM 33.0000 -97.1667 270° West 272 313 7,200 2,460 Climbing Dallas / Fort Worth TRACON
10:43PM 32.9836 -97.2053 243° Southwest 278 320 8,200 2,220 Climbing Fort Worth Center
10:44PM 32.9003 -97.1956 174° South 304 350 10,600 1,980 Climbing Fort Worth Center
10:45PM 32.3328 -97.0335 196° South  Level FlightAware Approximate
10:45PM 32.8078 -97.1733 169° South 338 389 12,300  Level Fort Worth Center
10:46PM 32.6969 -97.1500 170° South 371 427 14,700 2,340 Climbing Fort Worth Center
10:47PM 32.5881 -97.1256 169° South 394 453 17,100 2,280 Climbing Fort Worth Center
10:48PM 32.4700 -97.1000 170° South 408 470 19,400 2,160 Climbing Fort Worth Center
10:49PM 32.3533 -97.0753 170° South 422 486 21,600 1,260 Climbing Fort Worth Center
10:50PM 32.2317 -97.0589 173° South 430 495 22,000 120 Climbing Fort Worth Center
10:51PM 32.1269 -97.0628 182° South 422 486 21,900 -60 Descending Fort Worth Center
10:52PM 32.0100 -97.0672 182° South 421 484 21,900  Level Fort Worth Center
10:53PM 31.8800 -97.0722 182° South 424 488 22,000  Climbing Fort Worth Center
10:54PM 31.7617 -97.0764 182° South 424 488 22,000  Level Fort Worth Center
10:55PM 31.6419 -97.0789 181° South 426 490 22,000  Level Fort Worth Center
10:56PM 31.5231 -97.0867 183° South 427 491 22,000  Level Fort Worth Center
10:57PM 31.4111 -97.1292 198° South 422 486 22,000  Level Fort Worth Center
10:58PM 31.3003 -97.1736 199° South 422 486 22,000 -720 Level Fort Worth Center
10:59PM 31.1675 -97.2256 199° South 422 486 20,600 -1,860 Descending Fort Worth Center
11:00PM 31.0606 -97.2675 199° South 413 475 18,300 -2,160 Descending Fort Worth Center
11:01PM 30.9569 -97.3106 200° South 412 474 16,200 -2,100 Descending Fort Worth Center
11:02PM 30.8539 -97.3475 197° South 407 468 14,000 -1,980 Descending Fort Worth Center
11:03PM 30.7761 -97.3769 198° South 386 444 12,600 -1,500 Descending Houston Center
11:04PM 30.6814 -97.4144 199° South 369 425 11,300 -1,140 Descending Houston Center
11:05PM 30.5817 -97.4525 198° South 321 369 10,400 -1,140 Descending Houston Center
11:06PM 30.5042 -97.4819 198° South 299 344 9,000 -1,320 Descending Houston Center
11:07PM 30.4258 -97.4917 186° South 291 335 7,800 -1,080 Descending Houston Center
11:08PM 30.3506 -97.4958 183° South 276 318 6,900 -840 Descending Houston Center
11:09PM 30.2872 -97.5033 186° South 242 278 6,100 -1,200 Descending Houston Center
11:10PM 30.2267 -97.5103 186° South 221 254 4,500 -1,380 Descending Houston Center
11:11PM 30.1644 -97.5208 188° South 221 254 3,400 -1,080 Descending Houston Center
11:12PM 30.1019 -97.5331 190° South 222 255 2,400 -720 Descending Houston Center
11:13PM 30.0536 -97.5717 215° Southwest 227 261 2,000 -120 Descending Houston Center
11:14PM 30.0731 -97.6253 293° West 198 228 2,200 -240 Climbing Houston Center
11:15PM 30.1133 -97.6564 326° Northwest 188 216 1,600 -660 Descending Houston Center
11:16PM 30.1525 -97.6558 North 155 178 900 -720 Descending Houston Center